sensor_id;sensor_type;location;lat;lon;timestamp;P1;durP1;ratioP1;P2;durP2;ratioP2
10529;SDS011;5313;48.834;9.228;2023-11-22T00:00:49;3.93;;;3.17;;
10529;SDS011;5313;48.834;9.228;2023-11-22T00:03:15;4.23;;;3.10;;
10529;SDS011;5313;48.834;9.228;2023-11-22T00:05:40;5.27;;;3.40;;
10529;SDS011;5313;48.834;9.228;2023-11-22T00:08:06;5.70;;;4.03;;
10529;SDS011;5313;48.834;9.228;2023-11-22T00:10:31;8.03;;;3.80;;
10529;SDS011;5313;48.834;9.228;2023-11-22T00:12:57;6.93;;;4.37;;
10529;SDS011;5313;48.834;9.228;2023-11-22T00:15:23;5.17;;;3.83;;
10529;SDS011;5313;48.834;9.228;2023-11-22T00:17:49;10.90;;;5.17;;
10529;SDS011;5313;48.834;9.228;2023-11-22T00:20:14;6.77;;;4.80;;
10529;SDS011;5313;48.834;9.228;2023-11-22T00:22:42;7.10;;;4.67;;
10529;SDS011;5313;48.834;9.228;2023-11-22T00:25:10;7.07;;;5.10;;
10529;SDS011;5313;48.834;9.228;2023-11-22T00:27:38;7.37;;;5.23;;
10529;SDS011;5313;48.834;9.228;2023-11-22T00:30:04;8.53;;;5.37;;
10529;SDS011;5313;48.834;9.228;2023-11-22T00:32:29;11.03;;;6.03;;
10529;SDS011;5313;48.834;9.228;2023-11-22T00:34:55;9.80;;;5.57;;
10529;SDS011;5313;48.834;9.228;2023-11-22T00:37:22;8.17;;;5.23;;
10529;SDS011;5313;48.834;9.228;2023-11-22T00:39:48;10.13;;;5.90;;
10529;SDS011;5313;48.834;9.228;2023-11-22T00:42:13;8.40;;;5.83;;
10529;SDS011;5313;48.834;9.228;2023-11-22T00:44:39;10.37;;;6.17;;
10529;SDS011;5313;48.834;9.228;2023-11-22T00:47:04;10.73;;;6.50;;
10529;SDS011;5313;48.834;9.228;2023-11-22T00:49:31;9.63;;;6.03;;
10529;SDS011;5313;48.834;9.228;2023-11-22T00:51:57;9.40;;;6.10;;
10529;SDS011;5313;48.834;9.228;2023-11-22T00:54:23;10.53;;;6.87;;
10529;SDS011;5313;48.834;9.228;2023-11-22T00:56:50;10.93;;;7.13;;
10529;SDS011;5313;48.834;9.228;2023-11-22T00:59:15;10.93;;;6.43;;
10529;SDS011;5313;48.834;9.228;2023-11-22T01:01:41;12.17;;;6.97;;
10529;SDS011;5313;48.834;9.228;2023-11-22T01:04:06;9.40;;;6.73;;
10529;SDS011;5313;48.834;9.228;2023-11-22T01:06:32;11.80;;;7.33;;
10529;SDS011;5313;48.834;9.228;2023-11-22T01:08:58;10.37;;;6.80;;
10529;SDS011;5313;48.834;9.228;2023-11-22T01:11:24;12.57;;;7.23;;
10529;SDS011;5313;48.834;9.228;2023-11-22T01:13:49;9.97;;;6.63;;
10529;SDS011;5313;48.834;9.228;2023-11-22T01:16:15;9.20;;;6.63;;
10529;SDS011;5313;48.834;9.228;2023-11-22T01:18:40;8.37;;;6.07;;
10529;SDS011;5313;48.834;9.228;2023-11-22T01:21:06;8.67;;;6.00;;
10529;SDS011;5313;48.834;9.228;2023-11-22T01:23:33;10.80;;;5.67;;
10529;SDS011;5313;48.834;9.228;2023-11-22T01:25:58;9.23;;;5.50;;
10529;SDS011;5313;48.834;9.228;2023-11-22T01:28:24;7.90;;;5.13;;
10529;SDS011;5313;48.834;9.228;2023-11-22T01:30:53;9.67;;;5.13;;
10529;SDS011;5313;48.834;9.228;2023-11-22T01:33:22;5.80;;;4.57;;
10529;SDS011;5313;48.834;9.228;2023-11-22T01:35:49;6.20;;;4.37;;
10529;SDS011;5313;48.834;9.228;2023-11-22T01:38:17;7.43;;;4.40;;
10529;SDS011;5313;48.834;9.228;2023-11-22T01:40:46;6.83;;;4.40;;
10529;SDS011;5313;48.834;9.228;2023-11-22T01:43:13;6.23;;;4.40;;
10529;SDS011;5313;48.834;9.228;2023-11-22T01:45:42;6.60;;;4.50;;
10529;SDS011;5313;48.834;9.228;2023-11-22T01:48:09;5.53;;;4.03;;
10529;SDS011;5313;48.834;9.228;2023-11-22T01:50:39;7.37;;;4.47;;
10529;SDS011;5313;48.834;9.228;2023-11-22T01:53:07;5.80;;;3.30;;
10529;SDS011;5313;48.834;9.228;2023-11-22T01:55:34;5.50;;;3.57;;
10529;SDS011;5313;48.834;9.228;2023-11-22T01:58:00;5.97;;;3.37;;
10529;SDS011;5313;48.834;9.228;2023-11-22T02:00:29;5.53;;;3.57;;
10529;SDS011;5313;48.834;9.228;2023-11-22T02:03:00;5.63;;;3.50;;
10529;SDS011;5313;48.834;9.228;2023-11-22T02:05:26;5.13;;;2.73;;
10529;SDS011;5313;48.834;9.228;2023-11-22T02:07:51;4.83;;;3.67;;
10529;SDS011;5313;48.834;9.228;2023-11-22T02:10:17;4.70;;;3.67;;
10529;SDS011;5313;48.834;9.228;2023-11-22T02:12:42;5.90;;;3.67;;
10529;SDS011;5313;48.834;9.228;2023-11-22T02:15:08;4.77;;;3.50;;
10529;SDS011;5313;48.834;9.228;2023-11-22T02:17:34;4.87;;;3.47;;
10529;SDS011;5313;48.834;9.228;2023-11-22T02:20:01;5.97;;;4.10;;
10529;SDS011;5313;48.834;9.228;2023-11-22T02:22:26;6.40;;;3.63;;
10529;SDS011;5313;48.834;9.228;2023-11-22T02:24:52;6.27;;;3.37;;
10529;SDS011;5313;48.834;9.228;2023-11-22T02:27:17;5.57;;;3.20;;
10529;SDS011;5313;48.834;9.228;2023-11-22T02:29:44;3.83;;;2.90;;
10529;SDS011;5313;48.834;9.228;2023-11-22T02:32:10;4.67;;;3.37;;
10529;SDS011;5313;48.834;9.228;2023-11-22T02:34:35;3.87;;;3.03;;
10529;SDS011;5313;48.834;9.228;2023-11-22T02:37:01;4.73;;;3.43;;
10529;SDS011;5313;48.834;9.228;2023-11-22T02:39:28;5.03;;;3.10;;
10529;SDS011;5313;48.834;9.228;2023-11-22T02:42:02;5.43;;;3.13;;
10529;SDS011;5313;48.834;9.228;2023-11-22T02:44:28;4.93;;;3.50;;
10529;SDS011;5313;48.834;9.228;2023-11-22T02:46:54;3.60;;;3.07;;
10529;SDS011;5313;48.834;9.228;2023-11-22T02:49:19;4.30;;;2.87;;
10529;SDS011;5313;48.834;9.228;2023-11-22T02:51:45;4.63;;;3.23;;
10529;SDS011;5313;48.834;9.228;2023-11-22T02:54:11;4.90;;;3.43;;
10529;SDS011;5313;48.834;9.228;2023-11-22T02:56:36;4.60;;;2.80;;
10529;SDS011;5313;48.834;9.228;2023-11-22T02:59:02;4.87;;;3.50;;
10529;SDS011;5313;48.834;9.228;2023-11-22T03:01:28;5.03;;;3.07;;
10529;SDS011;5313;48.834;9.228;2023-11-22T03:03:53;4.30;;;3.23;;
10529;SDS011;5313;48.834;9.228;2023-11-22T03:06:19;4.23;;;3.30;;
10529;SDS011;5313;48.834;9.228;2023-11-22T03:08:44;4.23;;;3.23;;
10529;SDS011;5313;48.834;9.228;2023-11-22T03:11:10;5.20;;;3.60;;
10529;SDS011;5313;48.834;9.228;2023-11-22T03:13:36;20.60;;;6.67;;
10529;SDS011;5313;48.834;9.228;2023-11-22T03:16:01;6.53;;;3.60;;
10529;SDS011;5313;48.834;9.228;2023-11-22T03:18:28;5.47;;;3.23;;
10529;SDS011;5313;48.834;9.228;2023-11-22T03:20:54;4.13;;;3.37;;
10529;SDS011;5313;48.834;9.228;2023-11-22T03:23:20;4.23;;;2.87;;
10529;SDS011;5313;48.834;9.228;2023-11-22T03:25:46;6.33;;;3.50;;
10529;SDS011;5313;48.834;9.228;2023-11-22T03:28:12;5.10;;;3.10;;
10529;SDS011;5313;48.834;9.228;2023-11-22T03:30:37;5.90;;;3.47;;
10529;SDS011;5313;48.834;9.228;2023-11-22T03:33:04;4.80;;;3.47;;
10529;SDS011;5313;48.834;9.228;2023-11-22T03:35:29;4.70;;;3.30;;
10529;SDS011;5313;48.834;9.228;2023-11-22T03:37:56;6.10;;;3.60;;
10529;SDS011;5313;48.834;9.228;2023-11-22T03:40:21;5.20;;;3.80;;
10529;SDS011;5313;48.834;9.228;2023-11-22T03:42:47;4.73;;;3.20;;
10529;SDS011;5313;48.834;9.228;2023-11-22T03:45:12;4.90;;;3.40;;
10529;SDS011;5313;48.834;9.228;2023-11-22T03:47:39;4.77;;;3.50;;
10529;SDS011;5313;48.834;9.228;2023-11-22T03:50:05;5.80;;;3.50;;
10529;SDS011;5313;48.834;9.228;2023-11-22T03:52:31;6.63;;;4.13;;
10529;SDS011;5313;48.834;9.228;2023-11-22T03:54:57;5.00;;;4.00;;
10529;SDS011;5313;48.834;9.228;2023-11-22T03:57:23;5.27;;;3.83;;
10529;SDS011;5313;48.834;9.228;2023-11-22T03:59:48;7.27;;;4.40;;
10529;SDS011;5313;48.834;9.228;2023-11-22T04:02:14;7.73;;;4.17;;
10529;SDS011;5313;48.834;9.228;2023-11-22T04:04:39;5.80;;;4.00;;
10529;SDS011;5313;48.834;9.228;2023-11-22T04:07:06;5.27;;;4.00;;
10529;SDS011;5313;48.834;9.228;2023-11-22T04:09:32;8.10;;;4.30;;
10529;SDS011;5313;48.834;9.228;2023-11-22T04:11:58;5.70;;;4.40;;
10529;SDS011;5313;48.834;9.228;2023-11-22T04:14:24;5.53;;;4.13;;
10529;SDS011;5313;48.834;9.228;2023-11-22T04:16:49;5.77;;;4.00;;
10529;SDS011;5313;48.834;9.228;2023-11-22T04:19:21;6.17;;;4.10;;
10529;SDS011;5313;48.834;9.228;2023-11-22T04:21:46;6.33;;;3.67;;
10529;SDS011;5313;48.834;9.228;2023-11-22T04:24:12;7.13;;;4.23;;
10529;SDS011;5313;48.834;9.228;2023-11-22T04:26:37;6.40;;;4.10;;
10529;SDS011;5313;48.834;9.228;2023-11-22T04:29:03;5.23;;;3.97;;
10529;SDS011;5313;48.834;9.228;2023-11-22T04:31:29;5.23;;;3.80;;
10529;SDS011;5313;48.834;9.228;2023-11-22T04:33:55;4.87;;;4.07;;
10529;SDS011;5313;48.834;9.228;2023-11-22T04:36:22;4.90;;;4.00;;
10529;SDS011;5313;48.834;9.228;2023-11-22T04:38:48;6.70;;;3.73;;
10529;SDS011;5313;48.834;9.228;2023-11-22T04:41:14;6.00;;;3.97;;
10529;SDS011;5313;48.834;9.228;2023-11-22T04:43:40;5.40;;;3.70;;
10529;SDS011;5313;48.834;9.228;2023-11-22T04:46:06;5.93;;;4.30;;
10529;SDS011;5313;48.834;9.228;2023-11-22T04:48:33;4.87;;;3.77;;
10529;SDS011;5313;48.834;9.228;2023-11-22T04:50:59;4.43;;;3.30;;
10529;SDS011;5313;48.834;9.228;2023-11-22T04:53:24;4.87;;;3.70;;
10529;SDS011;5313;48.834;9.228;2023-11-22T04:55:50;5.00;;;3.80;;
10529;SDS011;5313;48.834;9.228;2023-11-22T04:58:15;4.73;;;3.40;;
10529;SDS011;5313;48.834;9.228;2023-11-22T05:00:41;5.63;;;3.87;;
10529;SDS011;5313;48.834;9.228;2023-11-22T05:03:06;7.13;;;3.80;;
10529;SDS011;5313;48.834;9.228;2023-11-22T05:05:32;4.83;;;3.87;;
10529;SDS011;5313;48.834;9.228;2023-11-22T05:07:58;5.80;;;3.90;;
10529;SDS011;5313;48.834;9.228;2023-11-22T05:10:23;6.03;;;3.97;;
10529;SDS011;5313;48.834;9.228;2023-11-22T05:12:49;6.43;;;4.20;;
10529;SDS011;5313;48.834;9.228;2023-11-22T05:15:14;5.33;;;3.63;;
10529;SDS011;5313;48.834;9.228;2023-11-22T05:17:40;6.07;;;3.80;;
10529;SDS011;5313;48.834;9.228;2023-11-22T05:20:06;5.37;;;3.87;;
10529;SDS011;5313;48.834;9.228;2023-11-22T05:22:34;4.93;;;3.43;;
10529;SDS011;5313;48.834;9.228;2023-11-22T05:25:00;5.03;;;3.63;;
10529;SDS011;5313;48.834;9.228;2023-11-22T05:27:26;4.40;;;3.00;;
10529;SDS011;5313;48.834;9.228;2023-11-22T05:29:53;6.27;;;3.53;;
10529;SDS011;5313;48.834;9.228;2023-11-22T05:32:19;4.93;;;3.40;;
10529;SDS011;5313;48.834;9.228;2023-11-22T05:34:44;5.40;;;3.50;;
10529;SDS011;5313;48.834;9.228;2023-11-22T05:37:10;4.23;;;3.10;;
10529;SDS011;5313;48.834;9.228;2023-11-22T05:39:36;5.83;;;3.37;;
10529;SDS011;5313;48.834;9.228;2023-11-22T05:42:01;6.67;;;3.73;;
10529;SDS011;5313;48.834;9.228;2023-11-22T05:44:28;4.80;;;3.30;;
10529;SDS011;5313;48.834;9.228;2023-11-22T05:46:54;4.83;;;3.50;;
10529;SDS011;5313;48.834;9.228;2023-11-22T05:49:19;4.37;;;2.97;;
10529;SDS011;5313;48.834;9.228;2023-11-22T05:51:45;5.23;;;3.40;;
10529;SDS011;5313;48.834;9.228;2023-11-22T05:54:10;4.83;;;2.90;;
10529;SDS011;5313;48.834;9.228;2023-11-22T05:56:37;6.17;;;3.50;;
10529;SDS011;5313;48.834;9.228;2023-11-22T05:59:03;4.57;;;3.47;;
10529;SDS011;5313;48.834;9.228;2023-11-22T06:01:28;4.77;;;3.23;;
10529;SDS011;5313;48.834;9.228;2023-11-22T06:03:55;5.00;;;3.40;;
10529;SDS011;5313;48.834;9.228;2023-11-22T06:06:20;5.07;;;3.60;;
10529;SDS011;5313;48.834;9.228;2023-11-22T06:08:47;5.83;;;3.30;;
10529;SDS011;5313;48.834;9.228;2023-11-22T06:11:13;5.00;;;3.07;;
10529;SDS011;5313;48.834;9.228;2023-11-22T06:13:40;4.77;;;3.30;;
10529;SDS011;5313;48.834;9.228;2023-11-22T06:16:07;4.63;;;3.40;;
10529;SDS011;5313;48.834;9.228;2023-11-22T06:18:34;4.40;;;3.50;;
10529;SDS011;5313;48.834;9.228;2023-11-22T06:21:05;4.37;;;3.07;;
10529;SDS011;5313;48.834;9.228;2023-11-22T06:23:34;4.17;;;2.90;;
10529;SDS011;5313;48.834;9.228;2023-11-22T06:25:59;4.07;;;3.13;;
10529;SDS011;5313;48.834;9.228;2023-11-22T06:28:25;4.13;;;3.10;;
10529;SDS011;5313;48.834;9.228;2023-11-22T06:30:50;5.73;;;3.50;;
10529;SDS011;5313;48.834;9.228;2023-11-22T06:33:16;4.87;;;3.10;;
10529;SDS011;5313;48.834;9.228;2023-11-22T06:35:41;3.67;;;3.13;;
10529;SDS011;5313;48.834;9.228;2023-11-22T06:38:07;3.70;;;2.57;;
10529;SDS011;5313;48.834;9.228;2023-11-22T06:40:33;3.07;;;2.43;;
10529;SDS011;5313;48.834;9.228;2023-11-22T06:42:59;3.60;;;2.70;;
10529;SDS011;5313;48.834;9.228;2023-11-22T06:45:24;3.13;;;2.50;;
10529;SDS011;5313;48.834;9.228;2023-11-22T06:47:50;8.60;;;3.07;;
10529;SDS011;5313;48.834;9.228;2023-11-22T06:50:16;4.83;;;3.10;;
10529;SDS011;5313;48.834;9.228;2023-11-22T06:52:42;5.27;;;2.87;;
10529;SDS011;5313;48.834;9.228;2023-11-22T06:55:08;6.50;;;3.40;;
10529;SDS011;5313;48.834;9.228;2023-11-22T06:57:34;3.20;;;2.50;;
10529;SDS011;5313;48.834;9.228;2023-11-22T07:00:00;5.00;;;2.97;;
10529;SDS011;5313;48.834;9.228;2023-11-22T07:02:33;4.40;;;2.63;;
10529;SDS011;5313;48.834;9.228;2023-11-22T07:05:00;4.20;;;2.43;;
10529;SDS011;5313;48.834;9.228;2023-11-22T07:07:28;3.13;;;2.77;;
10529;SDS011;5313;48.834;9.228;2023-11-22T07:09:54;3.80;;;2.50;;
10529;SDS011;5313;48.834;9.228;2023-11-22T07:12:23;6.27;;;3.13;;
10529;SDS011;5313;48.834;9.228;2023-11-22T07:14:52;2.80;;;2.10;;
10529;SDS011;5313;48.834;9.228;2023-11-22T07:17:18;3.20;;;2.27;;
10529;SDS011;5313;48.834;9.228;2023-11-22T07:19:44;4.53;;;2.60;;
10529;SDS011;5313;48.834;9.228;2023-11-22T07:22:13;5.83;;;3.00;;
10529;SDS011;5313;48.834;9.228;2023-11-22T07:24:43;4.43;;;2.30;;
10529;SDS011;5313;48.834;9.228;2023-11-22T07:27:10;3.40;;;2.37;;
10529;SDS011;5313;48.834;9.228;2023-11-22T07:29:37;4.93;;;2.33;;
10529;SDS011;5313;48.834;9.228;2023-11-22T07:32:04;3.67;;;2.63;;
10529;SDS011;5313;48.834;9.228;2023-11-22T07:34:30;3.83;;;2.57;;
10529;SDS011;5313;48.834;9.228;2023-11-22T07:36:56;3.40;;;2.67;;
10529;SDS011;5313;48.834;9.228;2023-11-22T07:39:21;3.87;;;2.60;;
10529;SDS011;5313;48.834;9.228;2023-11-22T07:41:52;3.90;;;2.43;;
10529;SDS011;5313;48.834;9.228;2023-11-22T07:44:19;4.43;;;2.60;;
10529;SDS011;5313;48.834;9.228;2023-11-22T07:46:46;5.30;;;3.03;;
10529;SDS011;5313;48.834;9.228;2023-11-22T07:49:12;4.40;;;2.67;;
10529;SDS011;5313;48.834;9.228;2023-11-22T07:51:38;5.77;;;2.47;;
10529;SDS011;5313;48.834;9.228;2023-11-22T07:54:04;5.83;;;2.80;;
10529;SDS011;5313;48.834;9.228;2023-11-22T07:56:30;4.57;;;2.60;;
10529;SDS011;5313;48.834;9.228;2023-11-22T07:58:57;4.53;;;3.00;;
10529;SDS011;5313;48.834;9.228;2023-11-22T08:01:23;7.37;;;3.33;;
10529;SDS011;5313;48.834;9.228;2023-11-22T08:03:50;5.27;;;2.90;;
10529;SDS011;5313;48.834;9.228;2023-11-22T08:06:16;5.73;;;2.80;;
10529;SDS011;5313;48.834;9.228;2023-11-22T08:08:42;4.40;;;3.17;;
10529;SDS011;5313;48.834;9.228;2023-11-22T08:11:10;6.40;;;3.07;;
10529;SDS011;5313;48.834;9.228;2023-11-22T08:13:40;4.10;;;3.20;;
10529;SDS011;5313;48.834;9.228;2023-11-22T08:16:08;4.27;;;2.90;;
10529;SDS011;5313;48.834;9.228;2023-11-22T08:18:34;3.30;;;2.57;;
10529;SDS011;5313;48.834;9.228;2023-11-22T08:20:59;4.00;;;2.50;;
10529;SDS011;5313;48.834;9.228;2023-11-22T08:23:25;3.60;;;2.70;;
10529;SDS011;5313;48.834;9.228;2023-11-22T08:25:51;3.57;;;2.50;;
10529;SDS011;5313;48.834;9.228;2023-11-22T08:28:18;4.60;;;2.90;;
10529;SDS011;5313;48.834;9.228;2023-11-22T08:30:43;3.70;;;2.63;;
10529;SDS011;5313;48.834;9.228;2023-11-22T08:33:09;4.10;;;2.70;;
10529;SDS011;5313;48.834;9.228;2023-11-22T08:35:35;4.43;;;2.70;;
10529;SDS011;5313;48.834;9.228;2023-11-22T08:38:01;4.20;;;3.10;;
10529;SDS011;5313;48.834;9.228;2023-11-22T08:40:28;5.17;;;3.20;;
10529;SDS011;5313;48.834;9.228;2023-11-22T08:42:54;4.93;;;2.90;;
10529;SDS011;5313;48.834;9.228;2023-11-22T08:45:20;4.63;;;2.40;;
10529;SDS011;5313;48.834;9.228;2023-11-22T08:47:45;5.00;;;3.43;;
10529;SDS011;5313;48.834;9.228;2023-11-22T08:50:11;5.43;;;3.20;;
10529;SDS011;5313;48.834;9.228;2023-11-22T08:52:40;4.20;;;2.80;;
10529;SDS011;5313;48.834;9.228;2023-11-22T08:55:07;4.33;;;3.20;;
10529;SDS011;5313;48.834;9.228;2023-11-22T08:57:35;5.17;;;3.47;;
10529;SDS011;5313;48.834;9.228;2023-11-22T09:00:02;5.27;;;3.37;;
10529;SDS011;5313;48.834;9.228;2023-11-22T09:02:34;6.93;;;3.33;;
10529;SDS011;5313;48.834;9.228;2023-11-22T09:05:01;5.57;;;3.63;;
10529;SDS011;5313;48.834;9.228;2023-11-22T09:07:32;10.00;;;3.60;;
10529;SDS011;5313;48.834;9.228;2023-11-22T09:10:00;4.17;;;3.07;;
10529;SDS011;5313;48.834;9.228;2023-11-22T09:12:26;7.50;;;3.37;;
10529;SDS011;5313;48.834;9.228;2023-11-22T09:14:52;5.67;;;3.47;;
10529;SDS011;5313;48.834;9.228;2023-11-22T09:17:18;5.27;;;3.60;;
10529;SDS011;5313;48.834;9.228;2023-11-22T09:19:44;6.70;;;3.30;;
10529;SDS011;5313;48.834;9.228;2023-11-22T09:22:09;5.03;;;3.40;;
10529;SDS011;5313;48.834;9.228;2023-11-22T09:24:36;6.73;;;3.30;;
10529;SDS011;5313;48.834;9.228;2023-11-22T09:27:01;6.30;;;3.63;;
10529;SDS011;5313;48.834;9.228;2023-11-22T09:29:30;4.73;;;3.47;;
10529;SDS011;5313;48.834;9.228;2023-11-22T09:31:56;5.10;;;3.53;;
10529;SDS011;5313;48.834;9.228;2023-11-22T09:34:21;5.60;;;3.70;;
10529;SDS011;5313;48.834;9.228;2023-11-22T09:36:47;6.03;;;3.60;;
10529;SDS011;5313;48.834;9.228;2023-11-22T09:39:12;5.50;;;3.40;;
10529;SDS011;5313;48.834;9.228;2023-11-22T09:41:38;8.67;;;4.07;;
10529;SDS011;5313;48.834;9.228;2023-11-22T09:44:04;5.97;;;3.53;;
10529;SDS011;5313;48.834;9.228;2023-11-22T09:46:30;5.80;;;3.43;;
10529;SDS011;5313;48.834;9.228;2023-11-22T09:48:59;6.80;;;3.60;;
10529;SDS011;5313;48.834;9.228;2023-11-22T09:51:28;5.13;;;3.67;;
10529;SDS011;5313;48.834;9.228;2023-11-22T09:53:58;5.97;;;3.83;;
10529;SDS011;5313;48.834;9.228;2023-11-22T09:56:26;6.37;;;4.20;;
10529;SDS011;5313;48.834;9.228;2023-11-22T09:58:53;9.93;;;4.10;;
10529;SDS011;5313;48.834;9.228;2023-11-22T10:01:21;8.30;;;3.90;;
10529;SDS011;5313;48.834;9.228;2023-11-22T10:03:47;8.93;;;3.77;;
10529;SDS011;5313;48.834;9.228;2023-11-22T10:06:14;5.97;;;3.77;;
10529;SDS011;5313;48.834;9.228;2023-11-22T10:08:40;4.47;;;3.13;;
10529;SDS011;5313;48.834;9.228;2023-11-22T10:11:06;5.73;;;3.50;;
10529;SDS011;5313;48.834;9.228;2023-11-22T10:13:32;5.67;;;3.87;;
10529;SDS011;5313;48.834;9.228;2023-11-22T10:16:14;5.97;;;3.73;;
10529;SDS011;5313;48.834;9.228;2023-11-22T10:18:42;7.37;;;4.00;;
10529;SDS011;5313;48.834;9.228;2023-11-22T10:21:18;6.83;;;4.07;;
10529;SDS011;5313;48.834;9.228;2023-11-22T10:23:44;5.77;;;4.13;;
10529;SDS011;5313;48.834;9.228;2023-11-22T10:26:09;5.77;;;3.80;;
10529;SDS011;5313;48.834;9.228;2023-11-22T10:28:35;6.23;;;3.67;;
10529;SDS011;5313;48.834;9.228;2023-11-22T10:31:00;6.30;;;4.30;;
10529;SDS011;5313;48.834;9.228;2023-11-22T10:33:32;6.53;;;4.30;;
10529;SDS011;5313;48.834;9.228;2023-11-22T10:35:58;6.40;;;4.23;;
10529;SDS011;5313;48.834;9.228;2023-11-22T10:38:23;6.53;;;4.23;;
10529;SDS011;5313;48.834;9.228;2023-11-22T10:40:49;11.07;;;5.00;;
10529;SDS011;5313;48.834;9.228;2023-11-22T10:43:17;6.33;;;4.00;;
10529;SDS011;5313;48.834;9.228;2023-11-22T10:45:43;5.27;;;4.10;;
10529;SDS011;5313;48.834;9.228;2023-11-22T10:48:16;6.90;;;4.53;;
10529;SDS011;5313;48.834;9.228;2023-11-22T10:50:45;6.57;;;4.70;;
10529;SDS011;5313;48.834;9.228;2023-11-22T10:53:12;5.63;;;4.20;;
10529;SDS011;5313;48.834;9.228;2023-11-22T10:55:46;6.97;;;4.50;;
10529;SDS011;5313;48.834;9.228;2023-11-22T10:58:16;6.70;;;4.63;;
10529;SDS011;5313;48.834;9.228;2023-11-22T11:00:45;8.00;;;4.27;;
10529;SDS011;5313;48.834;9.228;2023-11-22T11:03:13;6.33;;;4.37;;
10529;SDS011;5313;48.834;9.228;2023-11-22T11:05:49;8.00;;;4.60;;
10529;SDS011;5313;48.834;9.228;2023-11-22T11:08:19;7.67;;;3.67;;
10529;SDS011;5313;48.834;9.228;2023-11-22T11:10:46;5.17;;;3.90;;
10529;SDS011;5313;48.834;9.228;2023-11-22T11:13:14;7.00;;;4.37;;
10529;SDS011;5313;48.834;9.228;2023-11-22T11:15:43;6.37;;;4.40;;
10529;SDS011;5313;48.834;9.228;2023-11-22T11:18:11;7.43;;;4.53;;
10529;SDS011;5313;48.834;9.228;2023-11-22T11:21:11;6.00;;;4.30;;
10529;SDS011;5313;48.834;9.228;2023-11-22T11:23:37;7.40;;;4.90;;
10529;SDS011;5313;48.834;9.228;2023-11-22T11:26:09;5.93;;;4.43;;
10529;SDS011;5313;48.834;9.228;2023-11-22T11:28:44;7.03;;;4.63;;
10529;SDS011;5313;48.834;9.228;2023-11-22T11:31:14;7.13;;;4.40;;
10529;SDS011;5313;48.834;9.228;2023-11-22T11:36:15;5.63;;;4.53;;
10529;SDS011;5313;48.834;9.228;2023-11-22T11:38:46;6.20;;;4.60;;
10529;SDS011;5313;48.834;9.228;2023-11-22T11:41:14;6.00;;;4.20;;
10529;SDS011;5313;48.834;9.228;2023-11-22T11:43:42;7.97;;;4.20;;
10529;SDS011;5313;48.834;9.228;2023-11-22T11:46:09;6.37;;;4.00;;
10529;SDS011;5313;48.834;9.228;2023-11-22T11:48:35;6.40;;;4.33;;
10529;SDS011;5313;48.834;9.228;2023-11-22T11:51:01;5.60;;;4.27;;
10529;SDS011;5313;48.834;9.228;2023-11-22T11:53:27;6.73;;;4.10;;
10529;SDS011;5313;48.834;9.228;2023-11-22T11:55:53;7.13;;;4.60;;
10529;SDS011;5313;48.834;9.228;2023-11-22T11:58:19;6.57;;;4.53;;
10529;SDS011;5313;48.834;9.228;2023-11-22T12:00:45;5.67;;;4.30;;
10529;SDS011;5313;48.834;9.228;2023-11-22T12:03:10;7.33;;;4.70;;
10529;SDS011;5313;48.834;9.228;2023-11-22T12:05:36;6.53;;;4.63;;
10529;SDS011;5313;48.834;9.228;2023-11-22T12:08:03;7.77;;;4.80;;
10529;SDS011;5313;48.834;9.228;2023-11-22T12:10:29;5.60;;;4.37;;
10529;SDS011;5313;48.834;9.228;2023-11-22T12:12:55;7.83;;;4.40;;
10529;SDS011;5313;48.834;9.228;2023-11-22T12:15:20;8.73;;;4.23;;
10529;SDS011;5313;48.834;9.228;2023-11-22T12:17:48;7.00;;;4.30;;
10529;SDS011;5313;48.834;9.228;2023-11-22T12:20:16;7.07;;;4.70;;
10529;SDS011;5313;48.834;9.228;2023-11-22T12:22:46;7.37;;;4.60;;
10529;SDS011;5313;48.834;9.228;2023-11-22T12:25:13;7.23;;;4.97;;
10529;SDS011;5313;48.834;9.228;2023-11-22T12:27:39;7.27;;;4.77;;
10529;SDS011;5313;48.834;9.228;2023-11-22T12:30:16;7.73;;;5.03;;
10529;SDS011;5313;48.834;9.228;2023-11-22T12:32:59;5.53;;;4.17;;
10529;SDS011;5313;48.834;9.228;2023-11-22T12:35:35;6.93;;;3.73;;
10529;SDS011;5313;48.834;9.228;2023-11-22T12:38:01;6.53;;;4.17;;
10529;SDS011;5313;48.834;9.228;2023-11-22T12:40:30;6.90;;;4.60;;
10529;SDS011;5313;48.834;9.228;2023-11-22T12:42:56;9.03;;;4.27;;
10529;SDS011;5313;48.834;9.228;2023-11-22T12:45:22;6.83;;;4.40;;
10529;SDS011;5313;48.834;9.228;2023-11-22T12:47:52;7.17;;;4.80;;
10529;SDS011;5313;48.834;9.228;2023-11-22T12:50:37;8.33;;;4.73;;
10529;SDS011;5313;48.834;9.228;2023-11-22T12:53:10;6.77;;;4.67;;
10529;SDS011;5313;48.834;9.228;2023-11-22T12:55:37;6.17;;;4.47;;
10529;SDS011;5313;48.834;9.228;2023-11-22T12:58:06;6.23;;;4.17;;
10529;SDS011;5313;48.834;9.228;2023-11-22T13:00:32;7.70;;;4.70;;
10529;SDS011;5313;48.834;9.228;2023-11-22T13:02:58;5.97;;;4.30;;
10529;SDS011;5313;48.834;9.228;2023-11-22T13:05:24;8.47;;;4.80;;
10529;SDS011;5313;48.834;9.228;2023-11-22T13:07:50;5.30;;;4.10;;
10529;SDS011;5313;48.834;9.228;2023-11-22T13:10:16;6.03;;;4.20;;
10529;SDS011;5313;48.834;9.228;2023-11-22T13:12:42;7.03;;;4.10;;
10529;SDS011;5313;48.834;9.228;2023-11-22T13:15:14;7.90;;;4.43;;
10529;SDS011;5313;48.834;9.228;2023-11-22T13:17:39;6.57;;;4.40;;
10529;SDS011;5313;48.834;9.228;2023-11-22T13:20:08;6.00;;;4.17;;
10529;SDS011;5313;48.834;9.228;2023-11-22T13:22:41;6.97;;;4.57;;
10529;SDS011;5313;48.834;9.228;2023-11-22T13:25:08;8.27;;;4.37;;
10529;SDS011;5313;48.834;9.228;2023-11-22T13:27:35;6.73;;;4.43;;
10529;SDS011;5313;48.834;9.228;2023-11-22T13:30:01;7.27;;;4.70;;
10529;SDS011;5313;48.834;9.228;2023-11-22T13:32:29;7.37;;;4.50;;
10529;SDS011;5313;48.834;9.228;2023-11-22T13:34:54;8.17;;;4.67;;
10529;SDS011;5313;48.834;9.228;2023-11-22T13:37:24;7.37;;;5.07;;
10529;SDS011;5313;48.834;9.228;2023-11-22T13:39:50;6.33;;;4.10;;
10529;SDS011;5313;48.834;9.228;2023-11-22T13:42:16;10.73;;;4.50;;
10529;SDS011;5313;48.834;9.228;2023-11-22T13:44:41;5.87;;;4.53;;
10529;SDS011;5313;48.834;9.228;2023-11-22T13:47:09;6.13;;;4.63;;
10529;SDS011;5313;48.834;9.228;2023-11-22T13:49:35;6.40;;;4.30;;
10529;SDS011;5313;48.834;9.228;2023-11-22T13:52:02;6.33;;;4.10;;
10529;SDS011;5313;48.834;9.228;2023-11-22T13:54:27;6.37;;;4.33;;
10529;SDS011;5313;48.834;9.228;2023-11-22T13:56:53;7.70;;;4.83;;
10529;SDS011;5313;48.834;9.228;2023-11-22T13:59:19;6.53;;;4.57;;
10529;SDS011;5313;48.834;9.228;2023-11-22T14:01:44;7.30;;;4.57;;
10529;SDS011;5313;48.834;9.228;2023-11-22T14:04:10;8.10;;;4.80;;
10529;SDS011;5313;48.834;9.228;2023-11-22T14:06:36;7.97;;;4.80;;
10529;SDS011;5313;48.834;9.228;2023-11-22T14:09:02;6.40;;;4.60;;
10529;SDS011;5313;48.834;9.228;2023-11-22T14:11:28;5.90;;;4.30;;
10529;SDS011;5313;48.834;9.228;2023-11-22T14:13:54;7.17;;;4.10;;
10529;SDS011;5313;48.834;9.228;2023-11-22T14:16:20;7.30;;;5.00;;
10529;SDS011;5313;48.834;9.228;2023-11-22T14:18:45;6.50;;;4.43;;
10529;SDS011;5313;48.834;9.228;2023-11-22T14:21:11;6.17;;;4.17;;
10529;SDS011;5313;48.834;9.228;2023-11-22T14:23:37;6.83;;;4.23;;
10529;SDS011;5313;48.834;9.228;2023-11-22T14:26:02;7.10;;;4.43;;
10529;SDS011;5313;48.834;9.228;2023-11-22T14:28:28;7.70;;;4.80;;
10529;SDS011;5313;48.834;9.228;2023-11-22T14:30:55;9.17;;;4.37;;
10529;SDS011;5313;48.834;9.228;2023-11-22T14:33:20;7.80;;;4.93;;
10529;SDS011;5313;48.834;9.228;2023-11-22T14:35:46;7.23;;;5.10;;
10529;SDS011;5313;48.834;9.228;2023-11-22T14:38:12;7.03;;;4.77;;
10529;SDS011;5313;48.834;9.228;2023-11-22T14:40:38;9.63;;;4.60;;
10529;SDS011;5313;48.834;9.228;2023-11-22T14:43:05;7.60;;;4.57;;
10529;SDS011;5313;48.834;9.228;2023-11-22T14:45:31;8.20;;;5.10;;
10529;SDS011;5313;48.834;9.228;2023-11-22T14:47:57;7.23;;;5.00;;
10529;SDS011;5313;48.834;9.228;2023-11-22T14:50:24;7.70;;;4.67;;
10529;SDS011;5313;48.834;9.228;2023-11-22T14:52:53;7.90;;;4.40;;
10529;SDS011;5313;48.834;9.228;2023-11-22T14:55:19;6.10;;;3.93;;
10529;SDS011;5313;48.834;9.228;2023-11-22T14:57:45;7.40;;;4.97;;
10529;SDS011;5313;48.834;9.228;2023-11-22T15:00:12;6.47;;;4.60;;